createdAt,value
2019-01-31T00:01:34.296Z,29.10
2019-01-31T00:04:20.844Z,29.30
2019-01-31T00:07:01.310Z,28.95
2019-01-31T00:09:38.770Z,27.42
2019-01-31T00:12:18.962Z,28.20
2019-01-31T00:14:53.465Z,26.52
2019-01-31T00:17:46.031Z,27.07
2019-01-31T00:20:20.184Z,27.27
2019-01-31T00:23:20.156Z,27.35
2019-01-31T00:26:02.924Z,31.17
2019-01-31T00:29:03.098Z,29.95
2019-01-31T00:31:55.650Z,27.48
2019-01-31T00:34:49.815Z,26.27
2019-01-31T00:37:21.322Z,28.20
2019-01-31T00:39:52.933Z,25.90
2019-01-31T00:42:24.451Z,27.40
2019-01-31T00:45:15.453Z,27.58
2019-01-31T00:47:55.504Z,28.50
2019-01-31T00:50:33.076Z,27.27
2019-01-31T00:53:34.730Z,26.80
2019-01-31T00:56:18.288Z,27.80
2019-01-31T00:59:12.334Z,26.75
2019-01-31T01:01:49.822Z,28.32
2019-01-31T01:04:30.133Z,28.02
2019-01-31T01:07:10.608Z,27.52
2019-01-31T01:09:53.926Z,28.67
2019-01-31T01:12:44.784Z,26.68
2019-01-31T01:15:43.468Z,27.02
2019-01-31T01:18:24.227Z,26.27
2019-01-31T01:21:03.847Z,26.42
2019-01-31T01:23:38.028Z,24.98
2019-01-31T01:26:15.444Z,25.30
2019-01-31T01:29:07.783Z,27.00
2019-01-31T01:32:05.013Z,25.80
2019-01-31T01:34:42.099Z,27.13
2019-01-31T01:37:19.140Z,26.07
2019-01-31T01:40:07.316Z,27.67
2019-01-31T01:42:41.312Z,27.15
2019-01-31T01:45:24.928Z,26.50
2019-01-31T01:47:59.497Z,26.50
2019-01-31T01:50:31.010Z,25.17
2019-01-31T01:53:26.552Z,25.62
2019-01-31T01:56:25.300Z,26.35
2019-01-31T01:59:07.953Z,26.33
2019-01-31T02:01:45.134Z,26.50
2019-01-31T02:04:22.340Z,23.02
2019-01-31T02:07:10.118Z,26.02
2019-01-31T02:09:56.313Z,23.57
2019-01-31T02:12:30.876Z,23.95
2019-01-31T02:15:08.228Z,27.65
2019-01-31T02:17:42.672Z,23.75
2019-01-31T02:20:24.901Z,23.92
2019-01-31T02:23:11.544Z,24.25
2019-01-31T02:26:02.632Z,25.57
2019-01-31T02:28:38.661Z,23.05
2019-01-31T02:31:19.105Z,28.67
2019-01-31T02:34:05.505Z,25.15
2019-01-31T02:36:42.648Z,23.75
2019-01-31T02:39:42.705Z,23.57
2019-01-31T02:42:24.837Z,22.85
2019-01-31T02:45:22.336Z,25.45
2019-01-31T02:48:02.658Z,24.80
2019-01-31T02:50:42.998Z,22.98
2019-01-31T02:53:32.789Z,24.72
2019-01-31T02:56:09.867Z,23.92
2019-01-31T02:58:44.227Z,23.45
2019-01-31T03:01:33.977Z,22.95
2019-01-31T03:04:05.506Z,21.45
2019-01-31T03:06:40.133Z,24.27
2019-01-31T03:09:11.652Z,23.12
2019-01-31T03:11:49.223Z,22.05
2019-01-31T03:14:20.958Z,22.82
2019-01-31T03:17:04.205Z,24.65
2019-01-31T03:19:38.561Z,24.60
2019-01-31T03:22:12.705Z,23.47
2019-01-31T03:24:46.997Z,24.57
2019-01-31T03:27:45.744Z,23.98
2019-01-31T03:30:33.641Z,23.42
2019-01-31T03:33:07.929Z,22.85
2019-01-31T03:35:42.223Z,22.32
2019-01-31T03:38:25.597Z,21.87
2019-01-31T03:41:18.304Z,22.10
2019-01-31T03:43:49.797Z,23.25
2019-01-31T03:46:35.973Z,22.20
2019-01-31T03:49:10.343Z,22.70
2019-01-31T03:52:07.309Z,23.50
2019-01-31T03:54:44.525Z,21.93
2019-01-31T03:57:32.419Z,22.17
2019-01-31T04:00:12.135Z,22.73
2019-01-31T04:02:52.390Z,23.18
2019-01-31T04:05:38.864Z,22.75
2019-01-31T04:08:07.504Z,22.20
2019-01-31T04:10:35.957Z,23.25
2019-01-31T04:13:04.589Z,22.60
2019-01-31T04:15:33.063Z,22.42
2019-01-31T04:18:01.501Z,22.00
2019-01-31T04:20:29.985Z,22.77
2019-01-31T04:22:59.966Z,23.00
2019-01-31T04:25:28.441Z,20.75
2019-01-31T04:27:56.926Z,22.17
2019-01-31T04:30:25.585Z,22.13
2019-01-31T04:32:54.035Z,23.87
2019-01-31T04:35:22.496Z,22.87
2019-01-31T04:37:50.993Z,22.73
2019-01-31T04:40:30.517Z,22.45
2019-01-31T04:42:49.587Z,21.45
2019-01-31T04:45:18.033Z,22.30
2019-01-31T04:47:46.488Z,24.37
2019-01-31T04:50:15.497Z,21.90
2019-01-31T04:52:43.957Z,20.75
2019-01-31T04:55:12.556Z,21.70
2019-01-31T04:57:41.025Z,19.87
2019-01-31T05:00:12.774Z,22.30
2019-01-31T05:02:41.316Z,21.35
2019-01-31T05:05:09.917Z,20.05
2019-01-31T05:07:38.369Z,21.25
2019-01-31T05:10:09.729Z,22.30
2019-01-31T05:12:38.193Z,20.32
2019-01-31T05:15:09.702Z,21.10
2019-01-31T05:17:38.179Z,21.48
2019-01-31T05:20:15.605Z,21.27
2019-01-31T05:22:44.115Z,21.15
2019-01-31T05:25:14.096Z,20.92
2019-01-31T05:27:42.560Z,19.70
2019-01-31T05:30:13.635Z,22.60
2019-01-31T05:32:42.124Z,22.00
2019-01-31T05:35:12.301Z,21.50
2019-01-31T05:37:40.783Z,20.85
2019-01-31T05:40:12.469Z,22.17
2019-01-31T05:42:40.944Z,22.73
2019-01-31T05:45:12.388Z,21.17
2019-01-31T05:47:40.907Z,21.42
2019-01-31T05:50:14.543Z,23.50
2019-01-31T05:52:43.202Z,21.68
2019-01-31T05:55:12.560Z,22.35
2019-01-31T05:57:41.027Z,21.75
2019-01-31T06:00:15.483Z,21.12
2019-01-31T06:02:43.967Z,21.87
2019-01-31T06:05:12.780Z,21.00
2019-01-31T06:07:41.243Z,20.40
2019-01-31T06:10:11.914Z,20.40
2019-01-31T06:12:40.370Z,20.97
2019-01-31T06:15:11.867Z,24.20
2019-01-31T06:17:40.333Z,21.95
2019-01-31T06:20:11.858Z,21.45
2019-01-31T06:22:40.313Z,22.35
2019-01-31T06:25:08.930Z,19.35
2019-01-31T06:27:37.453Z,19.98
2019-01-31T06:30:08.991Z,20.37
2019-01-31T06:32:37.479Z,18.50
2019-01-31T06:35:08.975Z,19.00
2019-01-31T06:37:37.419Z,21.40
2019-01-31T06:40:12.047Z,20.27
2019-01-31T06:42:40.558Z,20.72
2019-01-31T06:45:12.549Z,21.35
2019-01-31T06:47:40.995Z,22.40
2019-01-31T06:50:10.341Z,20.55
2019-01-31T06:52:38.773Z,21.68
2019-01-31T06:55:09.488Z,20.68
2019-01-31T06:57:37.927Z,20.37
2019-01-31T07:00:15.501Z,21.37
2019-01-31T07:02:43.939Z,20.50
2019-01-31T07:05:12.563Z,20.72
2019-01-31T07:07:41.027Z,21.90
2019-01-31T07:10:12.698Z,21.00
2019-01-31T07:12:41.147Z,19.90
2019-01-31T07:15:11.587Z,23.55
2019-01-31T07:17:40.012Z,20.92
2019-01-31T07:20:16.818Z,21.77
2019-01-31T07:22:45.515Z,19.00
2019-01-31T07:25:24.460Z,21.40
2019-01-31T07:27:53.585Z,21.33
2019-01-31T07:30:23.410Z,21.30
2019-01-31T07:32:51.947Z,19.52
2019-01-31T07:35:20.678Z,20.72
2019-01-31T07:37:49.128Z,22.67
2019-01-31T07:40:22.351Z,20.92
2019-01-31T07:42:50.854Z,20.30
2019-01-31T07:45:24.982Z,19.45
2019-01-31T07:47:53.424Z,20.32
2019-01-31T07:50:22.067Z,21.65
2019-01-31T07:52:51.394Z,19.42
2019-01-31T07:55:20.187Z,29.45
2019-01-31T07:57:48.634Z,20.65
2019-01-31T08:00:19.313Z,21.00
2019-01-31T08:02:47.767Z,18.80
2019-01-31T08:05:18.092Z,19.98
2019-01-31T08:07:50.360Z,20.35
2019-01-31T08:10:26.780Z,20.27
2019-01-31T08:12:55.562Z,19.62
2019-01-31T08:15:24.101Z,19.15
2019-01-31T08:17:52.551Z,20.27
2019-01-31T08:20:21.315Z,19.65
2019-01-31T08:22:49.763Z,19.52
2019-01-31T08:25:22.960Z,20.12
2019-01-31T08:27:52.357Z,19.57
2019-01-31T08:30:32.425Z,19.82
2019-01-31T08:33:00.906Z,20.85
2019-01-31T08:35:29.460Z,18.87
2019-01-31T08:37:57.955Z,19.67
2019-01-31T08:40:26.450Z,20.65
2019-01-31T08:42:55.093Z,18.52
2019-01-31T08:45:23.582Z,21.25
2019-01-31T08:47:52.049Z,20.08
2019-01-31T08:50:28.416Z,19.92
2019-01-31T08:52:56.604Z,20.77
2019-01-31T08:55:25.155Z,19.30
2019-01-31T08:57:53.633Z,19.57
2019-01-31T09:00:24.790Z,20.43
2019-01-31T09:02:53.325Z,19.45
2019-01-31T09:05:21.766Z,18.35
2019-01-31T09:07:50.225Z,19.75
2019-01-31T09:10:24.484Z,19.12
2019-01-31T09:12:52.950Z,18.62
2019-01-31T09:15:23.313Z,19.02
2019-01-31T09:17:52.057Z,22.05
2019-01-31T09:20:29.350Z,20.75
2019-01-31T09:23:03.771Z,20.20
2019-01-31T09:26:08.779Z,19.00
2019-01-31T09:28:42.948Z,19.62
2019-01-31T09:31:20.078Z,23.90
2019-01-31T09:33:54.375Z,19.95
2019-01-31T09:36:43.585Z,20.43
2019-01-31T09:39:30.349Z,19.70
2019-01-31T09:42:11.011Z,21.00
2019-01-31T09:44:48.641Z,19.00
2019-01-31T09:47:47.290Z,20.55
2019-01-31T09:50:24.527Z,19.27
2019-01-31T09:53:07.466Z,18.77
2019-01-31T09:55:41.853Z,18.37
2019-01-31T09:58:16.032Z,19.80
2019-01-31T10:01:17.938Z,18.65
2019-01-31T10:04:07.507Z,17.77
2019-01-31T10:06:44.877Z,18.52
2019-01-31T10:09:22.183Z,19.02
2019-01-31T10:12:02.611Z,17.65
2019-01-31T10:14:53.634Z,18.17
2019-01-31T10:17:36.448Z,18.52
2019-01-31T10:20:22.933Z,16.67
2019-01-31T10:22:57.031Z,16.87
2019-01-31T10:25:31.165Z,17.37
2019-01-31T10:28:20.295Z,17.95
2019-01-31T10:31:16.216Z,17.45
2019-01-31T10:34:22.564Z,17.35
2019-01-31T10:36:56.933Z,17.87
2019-01-31T10:39:54.308Z,18.10
2019-01-31T10:42:28.598Z,20.00
2019-01-31T10:45:22.809Z,18.80
2019-01-31T10:48:08.673Z,16.20
2019-01-31T10:50:58.647Z,17.48
2019-01-31T10:53:35.840Z,17.65
2019-01-31T10:56:07.366Z,15.90
2019-01-31T10:58:58.528Z,15.15
2019-01-31T11:01:30.021Z,15.23
2019-01-31T11:04:22.055Z,16.23
2019-01-31T11:06:56.153Z,29.27
2019-01-31T11:09:46.001Z,17.87
2019-01-31T11:12:29.581Z,14.65
2019-01-31T11:15:29.723Z,16.05
2019-01-31T11:18:10.041Z,14.05
2019-01-31T11:21:00.664Z,13.95
2019-01-31T11:23:41.060Z,12.90
2019-01-31T11:26:15.213Z,14.87
2019-01-31T11:28:49.618Z,15.38
2019-01-31T11:31:33.214Z,13.98
2019-01-31T11:34:07.668Z,13.05
2019-01-31T11:36:45.243Z,13.05
2019-01-31T11:39:45.866Z,13.58
2019-01-31T11:42:38.197Z,14.83
2019-01-31T11:45:35.654Z,12.53
2019-01-31T11:48:25.030Z,12.40
2019-01-31T11:51:05.708Z,11.78
2019-01-31T11:53:40.270Z,12.07
2019-01-31T11:56:24.085Z,16.62
2019-01-31T11:59:00.742Z,12.63
2019-01-31T12:01:29.626Z,15.05
2019-01-31T12:04:00.374Z,20.62
2019-01-31T12:06:28.908Z,12.85
2019-01-31T12:08:57.364Z,14.23
2019-01-31T12:11:25.833Z,13.40
2019-01-31T12:13:54.305Z,12.55
2019-01-31T12:16:22.928Z,12.90
2019-01-31T12:18:51.386Z,11.70
2019-01-31T12:21:19.860Z,13.13
2019-01-31T12:23:48.451Z,15.58
2019-01-31T12:26:16.984Z,17.02
2019-01-31T12:28:45.516Z,12.25
2019-01-31T12:31:14.056Z,11.20
2019-01-31T12:33:42.450Z,10.80
2019-01-31T12:36:11.088Z,12.13
2019-01-31T12:38:39.573Z,10.15
2019-01-31T12:41:08.061Z,12.18
2019-01-31T12:43:36.533Z,11.40
2019-01-31T12:46:05.343Z,11.55
2019-01-31T12:48:33.815Z,9.80
2019-01-31T12:51:02.271Z,11.05
2019-01-31T12:53:30.827Z,12.88
2019-01-31T12:55:59.301Z,11.70
2019-01-31T12:58:33.762Z,11.25
2019-01-31T13:00:57.964Z,10.35
2019-01-31T13:03:26.473Z,11.60
2019-01-31T13:05:54.919Z,11.83
2019-01-31T13:08:23.421Z,11.40
2019-01-31T13:10:51.935Z,13.45
2019-01-31T13:13:20.360Z,12.00
2019-01-31T13:15:48.879Z,10.85
2019-01-31T13:18:17.329Z,11.57
2019-01-31T13:20:45.971Z,10.65
2019-01-31T13:23:14.601Z,11.45
2019-01-31T13:25:43.233Z,11.65
2019-01-31T13:28:11.689Z,11.12
2019-01-31T13:30:40.130Z,15.85
2019-01-31T13:33:08.818Z,15.72
2019-01-31T13:35:37.407Z,12.58
2019-01-31T13:38:05.975Z,13.60
2019-01-31T13:40:34.485Z,13.35
2019-01-31T13:43:02.936Z,11.45
2019-01-31T13:45:35.723Z,11.75
2019-01-31T13:48:07.233Z,12.40
2019-01-31T13:50:35.716Z,12.15
2019-01-31T13:53:06.587Z,11.43
2019-01-31T13:55:35.211Z,11.38
2019-01-31T13:58:04.144Z,12.15
2019-01-31T14:00:32.675Z,12.60
2019-01-31T14:03:01.182Z,10.70
2019-01-31T14:05:30.127Z,12.00
2019-01-31T14:07:58.749Z,10.80
2019-01-31T14:10:27.989Z,13.05
2019-01-31T14:12:56.563Z,12.40
2019-01-31T14:15:33.417Z,16.65
2019-01-31T14:17:58.028Z,12.25
2019-01-31T14:20:28.140Z,11.22
2019-01-31T14:22:56.855Z,12.70
2019-01-31T14:25:25.657Z,11.50
2019-01-31T14:27:55.299Z,13.62
2019-01-31T14:30:29.758Z,13.20
2019-01-31T14:32:58.830Z,11.45
2019-01-31T14:35:28.126Z,9.98
2019-01-31T14:37:56.593Z,13.08
2019-01-31T14:40:25.506Z,11.12
2019-01-31T14:42:54.599Z,11.35
2019-01-31T14:45:23.064Z,12.07
2019-01-31T14:47:51.624Z,12.28
2019-01-31T14:50:22.945Z,13.65
2019-01-31T14:52:51.462Z,14.55
2019-01-31T14:55:19.934Z,12.40
2019-01-31T14:57:48.471Z,11.68
2019-01-31T15:00:19.590Z,11.75
2019-01-31T15:02:48.050Z,13.58
2019-01-31T15:05:17.453Z,16.82
2019-01-31T15:07:46.240Z,13.98
2019-01-31T15:10:20.232Z,15.00
2019-01-31T15:12:48.661Z,14.63
2019-01-31T15:15:17.676Z,13.62
2019-01-31T15:17:46.185Z,13.83
2019-01-31T15:20:35.880Z,12.28
2019-01-31T15:22:56.170Z,11.70
2019-01-31T15:25:24.795Z,12.85
2019-01-31T15:27:53.433Z,10.93
2019-01-31T15:30:27.569Z,11.18
2019-01-31T15:32:56.149Z,14.60
2019-01-31T15:35:24.626Z,14.80
2019-01-31T15:37:53.175Z,12.35
2019-01-31T15:40:30.896Z,13.10
2019-01-31T15:42:59.325Z,9.88
2019-01-31T15:45:27.922Z,11.35
2019-01-31T15:47:56.635Z,12.30
2019-01-31T15:50:25.557Z,12.88
2019-01-31T15:52:54.279Z,12.93
2019-01-31T15:55:25.216Z,13.22
2019-01-31T15:57:53.767Z,12.70
2019-01-31T16:00:41.558Z,11.45
2019-01-31T16:03:11.948Z,11.80
2019-01-31T16:05:40.580Z,10.98
2019-01-31T16:08:10.036Z,14.28
2019-01-31T16:10:38.576Z,10.55
2019-01-31T16:13:07.512Z,10.20
2019-01-31T16:15:36.506Z,12.25
2019-01-31T16:18:06.599Z,10.88
2019-01-31T16:20:35.015Z,10.55
2019-01-31T16:23:03.718Z,12.33
2019-01-31T16:25:32.290Z,10.78
2019-01-31T16:28:00.765Z,15.32
2019-01-31T16:30:29.413Z,15.55
2019-01-31T16:32:57.904Z,12.45
2019-01-31T16:35:26.631Z,13.75
2019-01-31T16:37:55.445Z,16.05
2019-01-31T16:40:24.566Z,14.10
2019-01-31T16:42:53.092Z,15.25
2019-01-31T16:45:21.627Z,13.80
2019-01-31T16:47:50.118Z,13.43
2019-01-31T16:50:21.166Z,14.68
2019-01-31T16:52:49.645Z,12.90
2019-01-31T16:55:23.982Z,14.07
2019-01-31T16:57:52.729Z,14.87
2019-01-31T17:00:32.987Z,14.90
2019-01-31T17:03:01.529Z,16.77
2019-01-31T17:05:32.141Z,18.35
2019-01-31T17:08:00.948Z,18.25
2019-01-31T17:10:29.593Z,18.65
2019-01-31T17:12:58.071Z,17.82
2019-01-31T17:15:27.098Z,18.17
2019-01-31T17:17:55.671Z,18.87
2019-01-31T17:20:36.475Z,18.73
2019-01-31T17:23:05.993Z,17.60
2019-01-31T17:25:34.615Z,17.27
2019-01-31T17:28:03.118Z,18.75
2019-01-31T17:30:31.637Z,20.92
2019-01-31T17:33:00.538Z,19.45
2019-01-31T17:35:29.138Z,21.20
2019-01-31T17:37:57.589Z,21.17
2019-01-31T17:40:29.179Z,21.45
2019-01-31T17:42:57.632Z,19.77
2019-01-31T17:45:30.618Z,22.35
2019-01-31T17:47:56.915Z,21.20
2019-01-31T17:50:25.379Z,21.55
2019-01-31T17:52:53.857Z,20.60
2019-01-31T17:55:41.598Z,19.15
2019-01-31T17:58:09.782Z,21.93
2019-01-31T18:00:44.656Z,19.55
2019-01-31T18:03:13.124Z,23.67
2019-01-31T18:05:41.653Z,21.75
2019-01-31T18:08:10.190Z,24.90
2019-01-31T18:10:41.605Z,20.90
2019-01-31T18:13:10.056Z,19.17
2019-01-31T18:15:42.356Z,21.00
2019-01-31T18:18:08.981Z,20.65
2019-01-31T18:20:37.470Z,24.12
2019-01-31T18:23:05.933Z,23.47
2019-01-31T18:25:34.504Z,23.67
2019-01-31T18:28:02.951Z,22.22
2019-01-31T18:30:34.189Z,20.70
2019-01-31T18:33:04.193Z,20.90
2019-01-31T18:35:32.924Z,22.82
2019-01-31T18:38:01.385Z,24.02
2019-01-31T18:40:34.585Z,21.42
2019-01-31T18:43:03.143Z,25.50
2019-01-31T18:45:34.047Z,31.00
2019-01-31T18:48:02.999Z,25.10
2019-01-31T18:50:36.833Z,23.62
2019-01-31T18:53:05.634Z,25.12
2019-01-31T18:55:34.191Z,23.35
2019-01-31T18:58:02.789Z,22.25
2019-01-31T19:00:37.034Z,23.55
2019-01-31T19:03:05.985Z,24.50
2019-01-31T19:05:36.244Z,23.52
2019-01-31T19:08:08.603Z,62.40
2019-01-31T19:10:42.885Z,24.65
2019-01-31T19:13:06.011Z,24.57
2019-01-31T19:15:34.497Z,24.47
2019-01-31T19:18:05.929Z,28.00
2019-01-31T19:20:33.397Z,29.63
2019-01-31T19:23:04.010Z,27.22
2019-01-31T19:25:32.626Z,26.25
2019-01-31T19:28:01.136Z,25.45
2019-01-31T19:30:31.630Z,26.02
2019-01-31T19:33:00.197Z,25.52
2019-01-31T19:35:28.717Z,27.80
2019-01-31T19:38:01.937Z,29.15
2019-01-31T19:40:30.072Z,26.27
2019-01-31T19:42:58.660Z,28.42
2019-01-31T19:45:30.141Z,26.57
2019-01-31T19:47:58.689Z,31.55
2019-01-31T19:50:28.675Z,28.62
2019-01-31T19:52:57.308Z,40.23
2019-01-31T19:55:27.141Z,28.05
2019-01-31T19:57:55.704Z,29.50
2019-01-31T20:00:25.929Z,29.75
2019-01-31T20:02:54.853Z,29.65
2019-01-31T20:05:23.504Z,29.50
2019-01-31T20:07:52.129Z,33.10
2019-01-31T20:10:26.307Z,33.35
2019-01-31T20:12:55.252Z,31.40
2019-01-31T20:15:24.074Z,31.93
2019-01-31T20:17:52.691Z,31.12
2019-01-31T20:20:26.321Z,29.75
2019-01-31T20:22:55.683Z,32.63
2019-01-31T20:25:24.611Z,29.80
2019-01-31T20:27:53.148Z,31.00
2019-01-31T20:30:26.977Z,31.02
2019-01-31T20:32:57.361Z,31.87
2019-01-31T20:35:26.090Z,30.35
2019-01-31T20:37:54.649Z,31.68
2019-01-31T20:40:34.633Z,33.25
2019-01-31T20:43:04.606Z,33.67
2019-01-31T20:45:33.248Z,30.82
2019-01-31T20:48:01.749Z,31.45
2019-01-31T20:50:35.426Z,31.87
2019-01-31T20:53:04.573Z,37.45
2019-01-31T20:55:33.121Z,30.02
2019-01-31T20:58:03.245Z,28.67
2019-01-31T21:00:35.020Z,33.25
2019-01-31T21:03:05.101Z,33.28
2019-01-31T21:05:33.929Z,30.23
2019-01-31T21:08:02.460Z,34.10
2019-01-31T21:10:31.006Z,31.52
2019-01-31T21:13:00.828Z,31.87
2019-01-31T21:15:29.468Z,32.85
2019-01-31T21:17:59.462Z,32.88
2019-01-31T21:20:28.101Z,35.30
2019-01-31T21:22:57.796Z,33.20
2019-01-31T21:25:26.436Z,36.73
2019-01-31T21:27:55.088Z,36.75
2019-01-31T21:30:29.267Z,35.58
2019-01-31T21:32:57.819Z,33.60
2019-01-31T21:35:27.734Z,38.38
2019-01-31T21:37:56.292Z,36.77
2019-01-31T21:40:26.914Z,36.98
2019-01-31T21:42:55.451Z,37.10
2019-01-31T21:45:25.095Z,34.67
2019-01-31T21:47:54.660Z,37.30
2019-01-31T21:50:28.868Z,34.43
2019-01-31T21:52:57.572Z,37.40
2019-01-31T21:55:26.153Z,35.33
2019-01-31T21:57:54.609Z,39.13
2019-01-31T22:00:28.939Z,39.83
2019-01-31T22:02:57.402Z,40.43
2019-01-31T22:05:27.411Z,39.83
2019-01-31T22:07:56.023Z,42.90
2019-01-31T22:10:24.748Z,53.63
2019-01-31T22:12:53.273Z,43.45
2019-01-31T22:15:24.114Z,41.55
2019-01-31T22:17:52.595Z,38.10
2019-01-31T22:20:21.033Z,39.63
2019-01-31T22:22:49.563Z,35.38
2019-01-31T22:25:20.197Z,39.98
2019-01-31T22:27:48.737Z,40.70
2019-01-31T22:30:28.719Z,39.50
2019-01-31T22:32:57.168Z,39.53
2019-01-31T22:35:26.344Z,44.15
2019-01-31T22:37:54.819Z,40.40
2019-01-31T22:40:23.259Z,43.48
2019-01-31T22:42:51.738Z,41.45
2019-01-31T22:45:24.667Z,38.25
2019-01-31T22:47:53.554Z,43.25
2019-01-31T22:50:25.482Z,39.88
2019-01-31T22:52:54.098Z,39.03
2019-01-31T22:55:26.929Z,43.60
2019-01-31T22:57:55.453Z,39.13
2019-01-31T23:01:02.471Z,36.05
2019-01-31T23:03:30.937Z,41.88
2019-01-31T23:05:59.389Z,40.33
2019-01-31T23:08:27.858Z,43.17
2019-01-31T23:10:56.468Z,41.28
2019-01-31T23:13:24.919Z,43.63
2019-01-31T23:15:53.465Z,49.20
2019-01-31T23:18:21.943Z,42.75
2019-01-31T23:20:50.413Z,44.48
2019-01-31T23:23:18.869Z,40.40
2019-01-31T23:25:47.324Z,42.00
2019-01-31T23:28:15.782Z,39.20
2019-01-31T23:30:44.240Z,41.85
2019-01-31T23:33:13.450Z,42.13
2019-01-31T23:35:41.934Z,41.23
2019-01-31T23:38:10.391Z,41.60
2019-01-31T23:40:38.854Z,42.88
2019-01-31T23:43:07.498Z,42.83
2019-01-31T23:45:35.950Z,41.28
2019-01-31T23:48:04.712Z,43.25
2019-01-31T23:50:33.297Z,41.35
2019-01-31T23:53:01.740Z,41.02
2019-01-31T23:55:30.181Z,39.18
2019-01-31T23:57:58.666Z,40.75
